Chauncey, New York
Current Conditions -  °F | °C
As of 10:56 AM on Monday 22 Dec 2014 (Local Time) from KHPN Reporting Station
Overcast Overcast  
Wind Chill: 35°   Ceiling: 2100
Heat Index: 39°   Visibility: 10mi
Dew Point: 34°   Wind: 6mph
Humidity: 82%   Direction: 90°E
Pressure: 30.3"   Gusts: NA
Location:  41.0065°N, 73.8443°W
Report Text: KHPN 221556Z 09005KT 10SM BKN021 OVC036 04/01 A3030 RMK AO2 SLP268 T00390011
Loading
Personal Weather Stations






























Interactive Weather Map New forecast layout! Learn more

10-Day Weather Forecast

Advertisements
Track Severe Weather on mobile